createdAt,value
2022-10-17T00:00:23.089Z,100286.06
2022-10-17T00:03:11.474Z,100291.63
2022-10-17T00:05:59.388Z,100290.06
2022-10-17T00:08:48.703Z,100286.47
2022-10-17T00:11:36.924Z,100292.78
2022-10-17T00:14:24.860Z,100292.81
2022-10-17T00:17:12.898Z,100290.06
2022-10-17T00:20:01.846Z,100296.81
2022-10-17T00:22:49.883Z,100302.31
2022-10-17T00:25:40.512Z,100308.25
2022-10-17T00:28:29.011Z,100305.50
2022-10-17T00:31:19.166Z,100303.13
2022-10-17T00:34:07.055Z,100306.72
2022-10-17T00:36:54.956Z,100315.81
2022-10-17T00:39:42.880Z,100309.88
2022-10-17T00:42:32.101Z,100315.81
2022-10-17T00:45:24.617Z,100312.66
2022-10-17T00:48:13.799Z,100318.19
2022-10-17T00:51:01.759Z,100317.81
2022-10-17T00:53:51.739Z,100320.19
2022-10-17T00:56:40.661Z,100319.78
2022-10-17T00:59:31.334Z,100322.97
2022-10-17T01:02:21.607Z,100324.94
2022-10-17T01:05:10.961Z,100335.22
2022-10-17T01:07:59.039Z,100341.59
2022-10-17T01:11:02.127Z,100341.97
2022-10-17T01:13:59.628Z,100338.78
2022-10-17T01:16:55.150Z,100339.97
2022-10-17T01:20:00.307Z,100339.97
2022-10-17T01:22:53.132Z,100354.25
2022-10-17T01:25:54.299Z,100341.97
2022-10-17T01:29:06.843Z,100345.16
2022-10-17T01:32:00.953Z,100350.28
2022-10-17T01:34:59.216Z,100337.19
2022-10-17T01:40:50.559Z,100333.28
2022-10-17T01:43:42.964Z,100322.19
2022-10-17T01:46:36.426Z,100337.63
2022-10-17T01:49:29.322Z,100338.03
2022-10-17T01:52:21.702Z,100332.13
2022-10-17T01:55:15.024Z,100341.59
2022-10-17T01:58:08.758Z,100333.72
2022-10-17T02:00:59.445Z,100329.34
2022-10-17T02:03:52.044Z,100331.72
2022-10-17T02:06:41.333Z,100327.78
2022-10-17T02:09:32.568Z,100330.94
2022-10-17T02:12:43.139Z,100329.34
2022-10-17T02:16:01.803Z,100329.75
2022-10-17T02:19:08.198Z,100324.19
2022-10-17T02:22:07.848Z,100323.03
2022-10-17T02:25:03.832Z,100316.28
2022-10-17T02:27:55.837Z,100311.16
2022-10-17T02:30:48.022Z,100319.44
2022-10-17T02:33:39.964Z,100313.91
2022-10-17T02:36:31.852Z,100314.72
2022-10-17T02:39:23.282Z,100321.44
2022-10-17T02:42:13.942Z,100321.03
2022-10-17T02:45:03.593Z,100322.66
2022-10-17T02:47:58.796Z,100321.44
2022-10-17T02:50:58.821Z,100237.22
2022-10-17T02:53:56.208Z,100324.22
2022-10-17T02:56:51.432Z,100318.66
2022-10-17T02:59:42.058Z,100327.34
2022-10-17T03:02:30.422Z,100335.66
2022-10-17T03:05:21.444Z,100331.72
2022-10-17T03:08:09.393Z,100330.16
2022-10-17T03:10:57.374Z,100329.72
2022-10-17T03:13:49.062Z,100329.34
2022-10-17T03:16:38.099Z,100323.41
2022-10-17T03:19:26.493Z,100326.97
2022-10-17T03:22:14.908Z,100326.19
2022-10-17T03:25:06.716Z,100334.09
2022-10-17T03:27:59.166Z,100333.69
2022-10-17T03:30:48.693Z,100345.97
2022-10-17T03:33:37.796Z,100339.63
2022-10-17T03:36:25.831Z,100302.44
2022-10-17T03:39:15.461Z,100335.69
2022-10-17T03:42:03.643Z,100339.25
2022-10-17T03:44:51.600Z,100340.03
2022-10-17T03:47:40.895Z,100338.47
2022-10-17T03:50:28.946Z,100343.94
2022-10-17T03:53:18.063Z,100334.88
2022-10-17T03:56:15.276Z,100341.59
2022-10-17T03:59:04.118Z,100349.50
2022-10-17T04:01:54.876Z,100261.66
2022-10-17T04:04:44.810Z,100367.66
2022-10-17T04:07:32.896Z,100370.41
2022-10-17T04:10:21.868Z,100372.81
2022-10-17T04:13:10.290Z,100361.34
2022-10-17T04:16:00.344Z,100369.66
2022-10-17T04:18:48.358Z,100372.81
2022-10-17T04:21:37.789Z,100364.50
2022-10-17T04:24:28.855Z,100375.59
2022-10-17T04:27:26.744Z,100372.41
2022-10-17T04:30:15.957Z,100372.03
2022-10-17T04:33:05.547Z,100371.63
2022-10-17T04:35:58.401Z,100370.03
2022-10-17T04:38:48.045Z,100367.28
2022-10-17T04:41:36.037Z,100371.63
2022-10-17T04:44:33.995Z,100373.97
2022-10-17T04:47:22.382Z,100365.28
2022-10-17T04:50:10.661Z,100374.00
2022-10-17T04:53:00.616Z,100364.13
2022-10-17T04:55:49.977Z,100362.13
2022-10-17T04:58:38.195Z,100360.16
2022-10-17T05:01:27.617Z,100350.69
2022-10-17T05:04:15.549Z,100375.19
2022-10-17T05:07:04.455Z,100381.53
2022-10-17T05:10:04.632Z,100383.13
2022-10-17T05:12:55.669Z,100385.47
2022-10-17T05:15:47.528Z,100382.28
2022-10-17T05:18:37.499Z,100385.03
2022-10-17T05:21:27.722Z,100394.09
2022-10-17T05:24:16.406Z,100367.22
2022-10-17T05:27:05.016Z,100387.38
2022-10-17T05:29:54.548Z,100389.75
2022-10-17T05:32:48.976Z,100388.16
2022-10-17T05:35:37.609Z,100394.09
2022-10-17T05:38:27.305Z,100392.50
2022-10-17T05:41:16.101Z,100392.47
2022-10-17T05:44:05.633Z,100396.44
2022-10-17T05:47:04.433Z,100396.47
2022-10-17T05:49:52.874Z,100395.69
2022-10-17T05:52:54.720Z,100394.06
2022-10-17T05:55:44.136Z,100359.22
2022-10-17T05:58:49.244Z,100389.75
2022-10-17T06:02:10.370Z,100386.59
2022-10-17T06:04:38.077Z,100389.34
2022-10-17T06:07:06.420Z,100398.84
2022-10-17T06:09:36.606Z,100412.66
2022-10-17T06:12:04.692Z,100398.88
2022-10-17T06:14:32.927Z,100402.03
2022-10-17T06:17:03.278Z,100394.09
2022-10-17T06:19:32.488Z,100387.00
2022-10-17T06:22:00.185Z,100401.25
2022-10-17T06:24:29.406Z,100409.16
2022-10-17T06:26:58.021Z,100403.28
2022-10-17T06:29:25.735Z,100413.94
2022-10-17T06:31:53.959Z,100421.06
2022-10-17T06:34:21.843Z,100416.72
2022-10-17T06:36:51.089Z,100412.75
2022-10-17T06:39:20.297Z,100434.13
2022-10-17T06:42:05.948Z,100427.78
2022-10-17T06:44:56.301Z,100434.13
2022-10-17T06:47:38.510Z,100434.53
2022-10-17T06:50:23.462Z,100429.41
2022-10-17T06:53:10.943Z,100443.66
2022-10-17T06:56:02.792Z,100444.47
2022-10-17T06:58:46.965Z,100434.59
2022-10-17T07:01:24.807Z,100442.09
2022-10-17T07:03:56.877Z,100440.50
2022-10-17T07:06:25.106Z,100443.25
2022-10-17T07:08:56.530Z,100440.88
2022-10-17T07:11:25.822Z,100451.53
2022-10-17T07:13:53.822Z,100463.81
2022-10-17T07:16:22.837Z,100465.78
2022-10-17T07:19:02.867Z,100473.34
2022-10-17T07:21:38.987Z,100485.56
2022-10-17T07:24:09.613Z,100496.28
2022-10-17T07:26:37.596Z,100505.34
2022-10-17T07:29:06.352Z,100508.91
2022-10-17T07:31:40.807Z,100504.13
2022-10-17T07:34:08.590Z,100504.53
2022-10-17T07:36:36.505Z,100500.16
2022-10-17T07:39:06.287Z,100504.53
2022-10-17T07:41:37.803Z,100514.03
2022-10-17T07:44:06.154Z,100513.16
2022-10-17T07:46:38.426Z,100524.63
2022-10-17T07:49:06.707Z,100537.31
2022-10-17T07:51:34.891Z,100542.03
2022-10-17T07:54:02.666Z,100541.22
2022-10-17T07:56:30.362Z,100539.63
2022-10-17T07:59:00.807Z,100546.75
2022-10-17T08:01:31.346Z,100543.13
2022-10-17T08:03:58.933Z,100526.81
2022-10-17T08:06:26.546Z,100545.00
2022-10-17T08:08:54.170Z,100542.97
2022-10-17T08:11:23.192Z,100547.72
2022-10-17T08:13:50.834Z,100551.69
2022-10-17T08:16:19.953Z,100547.94
2022-10-17T08:18:47.553Z,100541.03
2022-10-17T08:21:15.361Z,100541.41
2022-10-17T08:23:43.163Z,100543.94
2022-10-17T08:26:13.362Z,100530.66
2022-10-17T08:28:41.663Z,100529.41
2022-10-17T08:31:10.893Z,100530.41
2022-10-17T08:33:40.227Z,100526.19
2022-10-17T08:36:09.188Z,100535.41
2022-10-17T08:38:43.033Z,100531.16
2022-10-17T08:41:21.112Z,100540.41
2022-10-17T08:44:06.476Z,100543.94
2022-10-17T08:46:37.778Z,100532.91
2022-10-17T08:49:13.413Z,100538.69
2022-10-17T08:51:48.825Z,100540.75
2022-10-17T08:54:20.894Z,100539.63
2022-10-17T08:56:51.666Z,100545.59
2022-10-17T08:59:24.342Z,100535.25
2022-10-17T09:01:59.546Z,100541.06
2022-10-17T09:05:01.556Z,100534.38
2022-10-17T09:07:37.840Z,100537.31
2022-10-17T09:10:12.514Z,100540.28
2022-10-17T09:12:49.677Z,100546.00
2022-10-17T09:15:53.791Z,100551.75
2022-10-17T09:18:27.413Z,100538.84
2022-10-17T09:21:00.992Z,100543.78
2022-10-17T09:23:32.125Z,100533.31
2022-10-17T09:26:01.847Z,100551.22
2022-10-17T09:28:34.313Z,100565.97
2022-10-17T09:31:04.849Z,100574.19
2022-10-17T09:33:53.273Z,100577.47
2022-10-17T09:36:29.053Z,100582.63
2022-10-17T09:38:59.204Z,100575.06
2022-10-17T09:41:49.989Z,100582.94
2022-10-17T09:44:21.634Z,100586.66
2022-10-17T09:47:14.917Z,100570.34
2022-10-17T09:49:44.565Z,100576.78
2022-10-17T09:52:16.094Z,100570.94
2022-10-17T09:54:47.707Z,100578.47
2022-10-17T09:57:17.368Z,100577.69
2022-10-17T09:59:47.639Z,100577.94
2022-10-17T10:02:21.622Z,100560.00
2022-10-17T10:05:05.626Z,100584.78
2022-10-17T10:07:40.055Z,100584.41
2022-10-17T10:10:23.772Z,100589.09
2022-10-17T10:13:05.848Z,100590.88
2022-10-17T10:15:37.489Z,100595.25
2022-10-17T10:21:11.760Z,100599.84
2022-10-17T10:23:41.928Z,100610.53
2022-10-17T10:26:25.329Z,100604.72
2022-10-17T10:28:56.790Z,100585.06
2022-10-17T10:31:31.524Z,100616.59
2022-10-17T10:34:02.806Z,100611.28
2022-10-17T10:36:54.526Z,100607.69
2022-10-17T10:39:35.611Z,100605.56
2022-10-17T10:42:06.233Z,100597.44
2022-10-17T10:44:35.297Z,100597.06
2022-10-17T10:47:24.986Z,100591.41
2022-10-17T10:49:54.666Z,100588.00
2022-10-17T10:52:32.511Z,100577.00
2022-10-17T10:55:18.402Z,100580.13
2022-10-17T10:57:48.455Z,100518.50
2022-10-17T11:00:20.455Z,100583.81
2022-10-17T11:02:56.428Z,100585.94
2022-10-17T11:05:40.494Z,100588.41
2022-10-17T11:08:15.998Z,100586.19
2022-10-17T11:10:57.297Z,100585.69
2022-10-17T11:13:28.852Z,100584.13
2022-10-17T11:16:00.968Z,100590.19
2022-10-17T11:18:34.302Z,100582.44
2022-10-17T11:21:06.889Z,100597.41
2022-10-17T11:23:41.303Z,100596.94
2022-10-17T11:26:25.737Z,100590.97
2022-10-17T11:28:53.937Z,100603.09
2022-10-17T11:31:24.293Z,100609.59
2022-10-17T11:33:58.046Z,100608.13
2022-10-17T11:36:30.098Z,100611.44
2022-10-17T11:39:01.702Z,100606.69
2022-10-17T11:41:36.149Z,100610.63
2022-10-17T11:44:12.704Z,100600.75
2022-10-17T11:46:42.416Z,100604.47
2022-10-17T11:49:19.188Z,100601.22
2022-10-17T11:52:00.909Z,100605.41
2022-10-17T11:54:35.683Z,100607.63
2022-10-17T11:57:20.416Z,100607.38
2022-10-17T12:00:03.966Z,100600.22
2022-10-17T12:02:41.419Z,100614.81
2022-10-17T12:05:21.064Z,100608.53
2022-10-17T12:07:56.344Z,100603.69
2022-10-17T12:10:36.578Z,100613.47
2022-10-17T12:13:41.871Z,100605.16
2022-10-17T12:16:39.906Z,100606.34
2022-10-17T12:19:30.852Z,100601.06
2022-10-17T12:22:01.507Z,100606.09
2022-10-17T12:24:35.899Z,100598.72
2022-10-17T12:27:32.639Z,100606.56
2022-10-17T12:30:01.572Z,100590.19
2022-10-17T12:32:46.875Z,100596.63
2022-10-17T12:35:22.986Z,100602.63
2022-10-17T12:38:24.188Z,100596.78
2022-10-17T12:40:54.359Z,100599.59
2022-10-17T12:43:40.567Z,100604.06
2022-10-17T12:46:12.282Z,100601.72
2022-10-17T12:49:37.020Z,100588.75
2022-10-17T12:52:25.003Z,100590.31
2022-10-17T12:55:15.080Z,100582.06
2022-10-17T12:57:49.856Z,100590.44
2022-10-17T13:00:22.519Z,100587.72
2022-10-17T13:02:53.160Z,100591.63
2022-10-17T13:05:29.400Z,100584.97
2022-10-17T13:08:01.818Z,100586.66
2022-10-17T13:10:33.162Z,100587.81
2022-10-17T13:13:07.565Z,100579.97
2022-10-17T13:15:37.969Z,100587.81
2022-10-17T13:18:06.292Z,100584.97
2022-10-17T13:20:34.156Z,100583.66
2022-10-17T13:23:03.752Z,100582.59
2022-10-17T13:25:33.240Z,100575.00
2022-10-17T13:28:11.846Z,100587.03
2022-10-17T13:30:39.665Z,100594.97
2022-10-17T13:33:28.686Z,100595.34
2022-10-17T13:36:00.374Z,100592.69
2022-10-17T13:38:34.855Z,100602.47
2022-10-17T13:41:30.558Z,100599.16
2022-10-17T13:43:53.033Z,100617.47
2022-10-17T13:46:39.122Z,100610.59
2022-10-17T13:49:13.688Z,100606.97
2022-10-17T13:51:45.456Z,100613.69
2022-10-17T13:54:33.136Z,100609.41
2022-10-17T13:57:01.959Z,100608.84
2022-10-17T13:59:34.192Z,100607.50
2022-10-17T14:02:02.642Z,100609.16
2022-10-17T14:04:39.991Z,100611.75
2022-10-17T14:07:25.383Z,100614.34
2022-10-17T14:09:54.643Z,100616.63
2022-10-17T14:12:23.308Z,100601.94
2022-10-17T14:15:10.721Z,100617.66
2022-10-17T14:17:39.281Z,100617.91
2022-10-17T14:20:47.812Z,100573.84
2022-10-17T14:23:21.074Z,100617.00
2022-10-17T14:25:45.361Z,100612.63
2022-10-17T14:28:15.814Z,100615.50
2022-10-17T14:30:56.365Z,100615.03
2022-10-17T14:33:29.441Z,100607.31
2022-10-17T14:36:01.467Z,100607.75
2022-10-17T14:38:30.656Z,100614.63
2022-10-17T14:41:29.625Z,100610.00
2022-10-17T14:43:55.188Z,100614.53
2022-10-17T14:46:22.874Z,100615.44
2022-10-17T14:48:55.641Z,100615.47
2022-10-17T14:51:23.256Z,100617.81
2022-10-17T14:54:05.813Z,100624.56
2022-10-17T14:56:43.183Z,100626.59
2022-10-17T14:59:12.597Z,100628.75
2022-10-17T15:01:45.820Z,100629.66
2022-10-17T15:04:13.397Z,100637.41
2022-10-17T15:06:41.315Z,100639.06
2022-10-17T15:09:10.324Z,100637.38
2022-10-17T15:11:38.360Z,100629.19
2022-10-17T15:14:07.301Z,100643.56
2022-10-17T15:16:37.043Z,100634.44
2022-10-17T15:19:04.648Z,100641.75
2022-10-17T15:21:39.623Z,100643.59
2022-10-17T15:24:09.565Z,100651.72
2022-10-17T15:26:37.883Z,100655.34
2022-10-17T15:29:07.243Z,100662.66
2022-10-17T15:31:35.846Z,100661.47
2022-10-17T15:34:03.494Z,100661.88
2022-10-17T15:36:35.046Z,100655.94
2022-10-17T15:39:02.921Z,100642.22
2022-10-17T15:41:32.818Z,100631.13
2022-10-17T15:44:01.193Z,100656.72
2022-10-17T15:46:33.641Z,100647.03
2022-10-17T15:49:04.277Z,100656.81
2022-10-17T15:51:31.947Z,100660.16
2022-10-17T15:54:01.393Z,100653.09
2022-10-17T15:56:32.486Z,100652.22
2022-10-17T15:59:00.120Z,100657.31
2022-10-17T16:01:31.023Z,100658.97
2022-10-17T16:03:59.330Z,100656.66
2022-10-17T16:06:27.541Z,100666.28
2022-10-17T16:08:55.146Z,100667.06
2022-10-17T16:11:29.856Z,100659.97
2022-10-17T16:13:59.987Z,100670.97
2022-10-17T16:16:28.037Z,100650.44
2022-10-17T16:18:57.439Z,100659.66
2022-10-17T16:21:32.355Z,100670.03
2022-10-17T16:24:00.536Z,100665.94
2022-10-17T16:26:29.359Z,100667.53
2022-10-17T16:28:58.052Z,100669.41
2022-10-17T16:31:29.148Z,100673.41
2022-10-17T16:33:59.636Z,100672.50
2022-10-17T16:36:27.520Z,100671.41
2022-10-17T16:38:55.244Z,100678.41
2022-10-17T16:41:25.095Z,100682.50
2022-10-17T16:43:55.667Z,100676.94
2022-10-17T16:46:24.287Z,100681.47
2022-10-17T16:48:52.253Z,100683.94
2022-10-17T16:51:22.108Z,100687.22
2022-10-17T16:53:54.173Z,100667.81
2022-10-17T16:56:24.533Z,100690.09
2022-10-17T16:58:52.588Z,100699.34
2022-10-17T17:01:23.009Z,100704.63
2022-10-17T17:03:51.811Z,100695.50
2022-10-17T17:06:24.208Z,100696.84
2022-10-17T17:08:51.950Z,100703.22
2022-10-17T17:11:22.476Z,100702.03
2022-10-17T17:13:50.244Z,100700.88
2022-10-17T17:16:19.970Z,100710.44
2022-10-17T17:18:49.090Z,100708.06
2022-10-17T17:21:16.729Z,100722.00
2022-10-17T17:23:45.899Z,100709.78
2022-10-17T17:26:14.968Z,100721.34
2022-10-17T17:28:43.729Z,100710.22
2022-10-17T17:31:14.617Z,100720.19
2022-10-17T17:33:43.410Z,100724.53
2022-10-17T17:36:13.685Z,100722.56
2022-10-17T17:38:42.078Z,100723.34
2022-10-17T17:41:12.879Z,100726.13
2022-10-17T17:43:40.561Z,100720.56
2022-10-17T17:46:09.070Z,100731.69
2022-10-17T17:48:38.180Z,100732.06
2022-10-17T17:51:06.667Z,100731.31
2022-10-17T17:53:34.910Z,100731.66
2022-10-17T17:56:03.321Z,100737.31
2022-10-17T17:58:32.694Z,100729.34
2022-10-17T18:01:00.639Z,100732.53
2022-10-17T18:03:28.829Z,100735.72
2022-10-17T18:05:56.453Z,100730.16
2022-10-17T18:08:24.048Z,100736.88
2022-10-17T18:10:56.322Z,100736.81
2022-10-17T18:13:23.908Z,100751.19
2022-10-17T18:15:57.858Z,100748.00
2022-10-17T18:18:26.020Z,100750.00
2022-10-17T18:20:54.282Z,100750.38
2022-10-17T18:23:22.044Z,100754.25
2022-10-17T18:25:56.644Z,100751.50
2022-10-17T18:28:24.662Z,100755.94
2022-10-17T18:30:54.115Z,100744.88
2022-10-17T18:33:22.114Z,100749.56
2022-10-17T18:35:49.714Z,100761.06
2022-10-17T18:38:17.299Z,100757.13
2022-10-17T18:40:47.321Z,100762.69
2022-10-17T18:43:18.203Z,100756.72
2022-10-17T18:45:45.814Z,100750.34
2022-10-17T18:48:14.780Z,100758.66
2022-10-17T18:50:42.355Z,100758.72
2022-10-17T18:53:09.953Z,100761.06
2022-10-17T18:55:40.158Z,100750.78
2022-10-17T18:58:07.804Z,100760.63
2022-10-17T19:00:35.395Z,100753.50
2022-10-17T19:03:04.102Z,100757.09
2022-10-17T19:05:34.696Z,100762.28
2022-10-17T19:08:02.300Z,100765.06
2022-10-17T19:10:29.968Z,100728.59
2022-10-17T19:12:57.703Z,100747.94
2022-10-17T19:15:26.079Z,100748.72
2022-10-17T19:17:53.904Z,100755.91
2022-10-17T19:20:21.596Z,100751.16
2022-10-17T19:22:50.561Z,100755.94
2022-10-17T19:25:18.271Z,100750.41
2022-10-17T19:27:45.943Z,100754.78
2022-10-17T19:30:13.547Z,100753.94
2022-10-17T19:32:41.917Z,100751.94
2022-10-17T19:35:11.122Z,100747.63
2022-10-17T19:37:38.951Z,100748.78
2022-10-17T19:40:09.524Z,100746.44
2022-10-17T19:42:37.179Z,100750.78
2022-10-17T19:45:05.511Z,100744.88
2022-10-17T19:47:33.577Z,100745.63
2022-10-17T19:50:01.352Z,100747.63
2022-10-17T19:52:29.368Z,100648.19
2022-10-17T19:54:57.171Z,100744.03
2022-10-17T19:57:26.314Z,100742.84
2022-10-17T19:59:55.978Z,100746.44
2022-10-17T20:02:23.878Z,100738.88
2022-10-17T20:05:18.550Z,100738.88
2022-10-17T20:08:07.251Z,100728.16
2022-10-17T20:10:55.147Z,100726.91
2022-10-17T20:13:45.673Z,100746.78
2022-10-17T20:16:36.086Z,100739.66
2022-10-17T20:19:24.048Z,100741.66
2022-10-17T20:22:11.916Z,100736.50
2022-10-17T20:24:59.808Z,100736.88
2022-10-17T20:27:47.771Z,100746.44
2022-10-17T20:30:37.095Z,100697.28
2022-10-17T20:33:31.708Z,100752.31
2022-10-17T20:36:23.176Z,100747.13
2022-10-17T20:39:12.159Z,100740.38
2022-10-17T20:42:00.109Z,100747.94
2022-10-17T20:44:48.399Z,100738.38
2022-10-17T20:47:47.167Z,100750.72
2022-10-17T20:50:38.284Z,100738.03
2022-10-17T20:53:36.882Z,100746.78
2022-10-17T20:56:27.092Z,100749.16
2022-10-17T20:59:16.862Z,100746.75
2022-10-17T21:02:05.419Z,100742.00
2022-10-17T21:04:54.721Z,100738.81
2022-10-17T21:07:42.674Z,100748.41
2022-10-17T21:10:35.502Z,100756.75
2022-10-17T21:13:23.709Z,100749.59
2022-10-17T21:16:13.463Z,100758.34
2022-10-17T21:19:01.380Z,100755.56
2022-10-17T21:21:50.976Z,100753.56
2022-10-17T21:24:38.869Z,100759.06
2022-10-17T21:27:26.987Z,100759.06
2022-10-17T21:30:14.893Z,100759.94
2022-10-17T21:33:03.072Z,100766.28
2022-10-17T21:35:55.808Z,100771.84
2022-10-17T21:38:46.211Z,100761.53
2022-10-17T21:41:34.444Z,100758.41
2022-10-17T21:44:24.443Z,100748.13
2022-10-17T21:47:13.873Z,100752.91
2022-10-17T21:50:01.747Z,100748.13
2022-10-17T21:52:49.592Z,100742.59
2022-10-17T21:55:39.049Z,100743.03
2022-10-17T21:58:27.689Z,100751.38
2022-10-17T22:01:17.719Z,100752.16
2022-10-17T22:04:07.379Z,100750.59
2022-10-17T22:06:55.301Z,100749.81
2022-10-17T22:09:43.145Z,100757.75
2022-10-17T22:12:32.798Z,100758.53
2022-10-17T22:15:20.952Z,100758.53
2022-10-17T22:18:08.898Z,100746.66
2022-10-17T22:20:56.779Z,100747.44
2022-10-17T22:23:46.765Z,100713.34
2022-10-17T22:26:36.767Z,100737.91
2022-10-17T22:29:25.991Z,100738.31
2022-10-17T22:32:17.522Z,100739.91
2022-10-17T22:35:09.337Z,100730.38
2022-10-17T22:37:57.176Z,100729.59
2022-10-17T22:40:45.850Z,100735.53
2022-10-17T22:43:33.832Z,100735.56
2022-10-17T22:46:23.130Z,100729.19
2022-10-17T22:49:11.019Z,100731.19
2022-10-17T22:51:58.867Z,100725.25
2022-10-17T22:54:46.764Z,100716.91
2022-10-17T22:57:34.630Z,100719.72
2022-10-17T23:00:22.524Z,100719.72
2022-10-17T23:03:11.719Z,100714.91
2022-10-17T23:05:59.974Z,100706.97
2022-10-17T23:08:48.085Z,100710.50
2022-10-17T23:11:35.964Z,100698.63
2022-10-17T23:14:23.821Z,100706.91
2022-10-17T23:17:12.584Z,100710.09
2022-10-17T23:20:01.768Z,100718.38
2022-10-17T23:22:49.697Z,100717.53
2022-10-17T23:25:37.547Z,100719.53
2022-10-17T23:28:25.453Z,100716.75
2022-10-17T23:31:15.610Z,100723.09
2022-10-17T23:34:03.618Z,100722.72
2022-10-17T23:36:54.051Z,100734.66
2022-10-17T23:39:41.918Z,100735.06
2022-10-17T23:42:29.906Z,100732.28
2022-10-17T23:45:18.422Z,100737.03
2022-10-17T23:48:07.099Z,100724.72
2022-10-17T23:50:55.853Z,100727.50
2022-10-17T23:53:45.125Z,100725.53
2022-10-17T23:56:33.036Z,100722.75
2022-10-17T23:59:20.920Z,100712.47
